sensor_id;sensor_type;location;lat;lon;timestamp;P1;durP1;ratioP1;P2;durP2;ratioP2
20344;SDS011;10330;48.816;9.278;2023-02-18T00:01:09;0.73;;;0.73;;
20344;SDS011;10330;48.816;9.278;2023-02-18T00:03:39;0.82;;;0.82;;
20344;SDS011;10330;48.816;9.278;2023-02-18T00:08:37;1.05;;;0.68;;
20344;SDS011;10330;48.816;9.278;2023-02-18T00:11:04;0.65;;;0.65;;
20344;SDS011;10330;48.816;9.278;2023-02-18T06:49:50;1.33;;;1.23;;
20344;SDS011;10330;48.816;9.278;2023-02-18T07:31:08;1.75;;;1.00;;
20344;SDS011;10330;48.816;9.278;2023-02-18T07:37:45;2.97;;;1.33;;
20344;SDS011;10330;48.816;9.278;2023-02-18T07:44:00;4.68;;;1.27;;
20344;SDS011;10330;48.816;9.278;2023-02-18T07:46:26;0.80;;;0.80;;
20344;SDS011;10330;48.816;9.278;2023-02-18T07:48:53;2.28;;;1.30;;
20344;SDS011;10330;48.816;9.278;2023-02-18T07:51:27;1.40;;;1.30;;
20344;SDS011;10330;48.816;9.278;2023-02-18T07:53:54;1.48;;;1.30;;
20344;SDS011;10330;48.816;9.278;2023-02-18T07:56:23;1.45;;;1.35;;
20344;SDS011;10330;48.816;9.278;2023-02-18T07:59:01;1.35;;;1.35;;
20344;SDS011;10330;48.816;9.278;2023-02-18T08:01:28;1.35;;;1.35;;
20344;SDS011;10330;48.816;9.278;2023-02-18T08:03:57;1.30;;;1.30;;
20344;SDS011;10330;48.816;9.278;2023-02-18T08:06:46;1.33;;;1.23;;
20344;SDS011;10330;48.816;9.278;2023-02-18T08:09:14;1.00;;;1.00;;
20344;SDS011;10330;48.816;9.278;2023-02-18T08:11:45;1.25;;;1.20;;
20344;SDS011;10330;48.816;9.278;2023-02-18T08:14:14;1.98;;;1.77;;
20344;SDS011;10330;48.816;9.278;2023-02-18T08:16:40;3.63;;;1.42;;
20344;SDS011;10330;48.816;9.278;2023-02-18T08:19:14;11.15;;;1.67;;
20344;SDS011;10330;48.816;9.278;2023-02-18T08:21:47;1.38;;;1.35;;
20344;SDS011;10330;48.816;9.278;2023-02-18T08:24:19;2.28;;;1.40;;
20344;SDS011;10330;48.816;9.278;2023-02-18T08:26:46;1.50;;;1.40;;
20344;SDS011;10330;48.816;9.278;2023-02-18T08:29:13;5.50;;;1.50;;
20344;SDS011;10330;48.816;9.278;2023-02-18T08:31:41;1.02;;;1.02;;
20344;SDS011;10330;48.816;9.278;2023-02-18T08:34:07;1.25;;;1.20;;
20344;SDS011;10330;48.816;9.278;2023-02-18T08:36:34;1.67;;;1.58;;
20344;SDS011;10330;48.816;9.278;2023-02-18T08:39:00;2.45;;;1.48;;
20344;SDS011;10330;48.816;9.278;2023-02-18T08:41:27;2.80;;;1.98;;
20344;SDS011;10330;48.816;9.278;2023-02-18T08:43:53;4.07;;;1.80;;
20344;SDS011;10330;48.816;9.278;2023-02-18T08:46:19;1.35;;;0.98;;
20344;SDS011;10330;48.816;9.278;2023-02-18T08:48:46;0.98;;;0.98;;
20344;SDS011;10330;48.816;9.278;2023-02-18T08:53:39;1.23;;;1.23;;
20344;SDS011;10330;48.816;9.278;2023-02-18T08:56:06;1.38;;;1.38;;
20344;SDS011;10330;48.816;9.278;2023-02-18T08:58:34;2.97;;;1.10;;
20344;SDS011;10330;48.816;9.278;2023-02-18T09:01:02;0.98;;;0.98;;
20344;SDS011;10330;48.816;9.278;2023-02-18T09:03:30;0.95;;;0.95;;
20344;SDS011;10330;48.816;9.278;2023-02-18T09:05:57;1.17;;;1.17;;
20344;SDS011;10330;48.816;9.278;2023-02-18T09:08:24;1.35;;;1.25;;
20344;SDS011;10330;48.816;9.278;2023-02-18T09:10:55;1.08;;;0.98;;
20344;SDS011;10330;48.816;9.278;2023-02-18T09:13:22;1.08;;;0.98;;
20344;SDS011;10330;48.816;9.278;2023-02-18T09:15:56;1.20;;;1.20;;
20344;SDS011;10330;48.816;9.278;2023-02-18T09:18:23;0.80;;;0.80;;
20344;SDS011;10330;48.816;9.278;2023-02-18T09:20:49;1.08;;;1.08;;
20344;SDS011;10330;48.816;9.278;2023-02-18T09:23:16;0.88;;;0.88;;
20344;SDS011;10330;48.816;9.278;2023-02-18T09:25:42;0.98;;;0.75;;
20344;SDS011;10330;48.816;9.278;2023-02-18T09:28:08;1.33;;;1.27;;
20344;SDS011;10330;48.816;9.278;2023-02-18T09:30:34;0.90;;;0.90;;
20344;SDS011;10330;48.816;9.278;2023-02-18T09:33:00;0.95;;;0.95;;
20344;SDS011;10330;48.816;9.278;2023-02-18T09:35:26;4.85;;;1.02;;
20344;SDS011;10330;48.816;9.278;2023-02-18T09:37:53;1.35;;;1.20;;
20344;SDS011;10330;48.816;9.278;2023-02-18T09:40:29;1.02;;;1.02;;
20344;SDS011;10330;48.816;9.278;2023-02-18T09:42:59;1.10;;;1.10;;
20344;SDS011;10330;48.816;9.278;2023-02-18T09:45:26;1.30;;;0.95;;
20344;SDS011;10330;48.816;9.278;2023-02-18T09:47:52;0.90;;;0.90;;
20344;SDS011;10330;48.816;9.278;2023-02-18T09:50:20;0.65;;;0.65;;
20344;SDS011;10330;48.816;9.278;2023-02-18T09:52:47;1.45;;;1.38;;
20344;SDS011;10330;48.816;9.278;2023-02-18T09:55:15;4.03;;;1.20;;
20344;SDS011;10330;48.816;9.278;2023-02-18T09:57:52;2.05;;;0.95;;
20344;SDS011;10330;48.816;9.278;2023-02-18T10:03:15;1.02;;;0.93;;
20344;SDS011;10330;48.816;9.278;2023-02-18T10:05:57;0.90;;;0.90;;
20344;SDS011;10330;48.816;9.278;2023-02-18T10:08:45;0.80;;;0.80;;
20344;SDS011;10330;48.816;9.278;2023-02-18T10:11:16;0.80;;;0.80;;
20344;SDS011;10330;48.816;9.278;2023-02-18T10:13:55;1.08;;;1.00;;
20344;SDS011;10330;48.816;9.278;2023-02-18T10:16:22;0.75;;;0.75;;
20344;SDS011;10330;48.816;9.278;2023-02-18T10:18:50;8.52;;;1.85;;
20344;SDS011;10330;48.816;9.278;2023-02-18T10:21:21;1.00;;;1.00;;
20344;SDS011;10330;48.816;9.278;2023-02-18T10:24:00;0.77;;;0.77;;
20344;SDS011;10330;48.816;9.278;2023-02-18T10:26:49;0.95;;;0.90;;
20344;SDS011;10330;48.816;9.278;2023-02-18T10:29:17;1.10;;;0.90;;
20344;SDS011;10330;48.816;9.278;2023-02-18T10:31:48;1.30;;;1.20;;
20344;SDS011;10330;48.816;9.278;2023-02-18T10:43:25;0.90;;;0.90;;
20344;SDS011;10330;48.816;9.278;2023-02-18T10:46:12;1.23;;;0.85;;
20344;SDS011;10330;48.816;9.278;2023-02-18T10:51:28;4.68;;;1.33;;
20344;SDS011;10330;48.816;9.278;2023-02-18T10:53:57;1.23;;;1.13;;
20344;SDS011;10330;48.816;9.278;2023-02-18T10:56:30;2.88;;;1.42;;
20344;SDS011;10330;48.816;9.278;2023-02-18T11:01:39;1.50;;;1.40;;
20344;SDS011;10330;48.816;9.278;2023-02-18T11:04:14;0.90;;;0.90;;
20344;SDS011;10330;48.816;9.278;2023-02-18T11:06:43;0.82;;;0.82;;
20344;SDS011;10330;48.816;9.278;2023-02-18T11:09:24;0.82;;;0.82;;
20344;SDS011;10330;48.816;9.278;2023-02-18T11:11:51;0.70;;;0.70;;
20344;SDS011;10330;48.816;9.278;2023-02-18T11:14:35;0.50;;;0.50;;
20344;SDS011;10330;48.816;9.278;2023-02-18T11:17:08;1.00;;;1.00;;
20344;SDS011;10330;48.816;9.278;2023-02-18T11:19:50;0.70;;;0.70;;
20344;SDS011;10330;48.816;9.278;2023-02-18T11:22:21;1.58;;;1.48;;
20344;SDS011;10330;48.816;9.278;2023-02-18T11:24:57;0.93;;;0.93;;
20344;SDS011;10330;48.816;9.278;2023-02-18T11:29:59;0.57;;;0.57;;
20344;SDS011;10330;48.816;9.278;2023-02-18T11:32:29;1.10;;;1.10;;
20344;SDS011;10330;48.816;9.278;2023-02-18T11:35:01;1.23;;;1.05;;
20344;SDS011;10330;48.816;9.278;2023-02-18T11:37:30;0.80;;;0.80;;
20344;SDS011;10330;48.816;9.278;2023-02-18T11:40:01;0.77;;;0.77;;
20344;SDS011;10330;48.816;9.278;2023-02-18T11:42:29;0.80;;;0.80;;
20344;SDS011;10330;48.816;9.278;2023-02-18T11:44:57;1.17;;;0.80;;
20344;SDS011;10330;48.816;9.278;2023-02-18T11:47:30;1.30;;;1.30;;
20344;SDS011;10330;48.816;9.278;2023-02-18T11:52:35;1.50;;;0.80;;
20344;SDS011;10330;48.816;9.278;2023-02-18T11:55:13;1.10;;;1.10;;
20344;SDS011;10330;48.816;9.278;2023-02-18T11:57:45;1.23;;;1.23;;
20344;SDS011;10330;48.816;9.278;2023-02-18T12:03:14;1.08;;;1.08;;
20344;SDS011;10330;48.816;9.278;2023-02-18T12:06:04;0.75;;;0.75;;
20344;SDS011;10330;48.816;9.278;2023-02-18T12:08:44;0.90;;;0.90;;
20344;SDS011;10330;48.816;9.278;2023-02-18T12:11:28;1.13;;;0.90;;
20344;SDS011;10330;48.816;9.278;2023-02-18T12:13:59;2.17;;;1.08;;
20344;SDS011;10330;48.816;9.278;2023-02-18T12:16:38;5.85;;;1.00;;
20344;SDS011;10330;48.816;9.278;2023-02-18T12:21:57;3.53;;;1.23;;
20344;SDS011;10330;48.816;9.278;2023-02-18T12:41:47;1.02;;;1.02;;
20344;SDS011;10330;48.816;9.278;2023-02-18T12:47:16;1.40;;;1.30;;
20344;SDS011;10330;48.816;9.278;2023-02-18T12:52:49;2.25;;;1.10;;
20344;SDS011;10330;48.816;9.278;2023-02-18T13:01:23;0.82;;;0.82;;
20344;SDS011;10330;48.816;9.278;2023-02-18T13:12:27;1.33;;;1.25;;
20344;SDS011;10330;48.816;9.278;2023-02-18T13:15:27;1.30;;;1.20;;
20344;SDS011;10330;48.816;9.278;2023-02-18T13:18:02;1.67;;;1.20;;
20344;SDS011;10330;48.816;9.278;2023-02-18T13:23:04;1.33;;;1.23;;
20344;SDS011;10330;48.816;9.278;2023-02-18T13:25:33;2.50;;;1.35;;
20344;SDS011;10330;48.816;9.278;2023-02-18T13:28:09;1.60;;;1.50;;
20344;SDS011;10330;48.816;9.278;2023-02-18T13:34:23;1.35;;;1.25;;
20344;SDS011;10330;48.816;9.278;2023-02-18T13:39:36;1.20;;;1.10;;
20344;SDS011;10330;48.816;9.278;2023-02-18T13:42:33;1.65;;;1.58;;
20344;SDS011;10330;48.816;9.278;2023-02-18T13:52:49;1.42;;;1.33;;
20344;SDS011;10330;48.816;9.278;2023-02-18T13:55:23;1.48;;;1.38;;
20344;SDS011;10330;48.816;9.278;2023-02-18T14:00:49;1.65;;;1.25;;
20344;SDS011;10330;48.816;9.278;2023-02-18T14:08:40;2.47;;;1.30;;
20344;SDS011;10330;48.816;9.278;2023-02-18T14:13:43;2.47;;;1.60;;
20344;SDS011;10330;48.816;9.278;2023-02-18T14:16:14;1.60;;;1.23;;
20344;SDS011;10330;48.816;9.278;2023-02-18T14:27:03;0.93;;;0.93;;
20344;SDS011;10330;48.816;9.278;2023-02-18T14:29:25;2.67;;;1.45;;
20344;SDS011;10330;48.816;9.278;2023-02-18T14:32:01;1.52;;;1.40;;
20344;SDS011;10330;48.816;9.278;2023-02-18T14:37:16;1.10;;;1.10;;
20344;SDS011;10330;48.816;9.278;2023-02-18T14:48:37;1.52;;;1.42;;
20344;SDS011;10330;48.816;9.278;2023-02-18T14:51:13;1.98;;;1.48;;
20344;SDS011;10330;48.816;9.278;2023-02-18T14:53:42;1.50;;;1.30;;
20344;SDS011;10330;48.816;9.278;2023-02-18T14:56:11;2.53;;;1.60;;
20344;SDS011;10330;48.816;9.278;2023-02-18T14:58:41;1.98;;;1.75;;
20344;SDS011;10330;48.816;9.278;2023-02-18T15:03:49;1.20;;;1.20;;
20344;SDS011;10330;48.816;9.278;2023-02-18T15:08:56;3.25;;;1.60;;
20344;SDS011;10330;48.816;9.278;2023-02-18T15:11:34;1.52;;;1.10;;
20344;SDS011;10330;48.816;9.278;2023-02-18T15:14:24;1.40;;;1.23;;
20344;SDS011;10330;48.816;9.278;2023-02-18T15:16:53;1.38;;;1.27;;
20344;SDS011;10330;48.816;9.278;2023-02-18T15:19:22;1.23;;;1.17;;
20344;SDS011;10330;48.816;9.278;2023-02-18T15:21:55;1.70;;;1.60;;
20344;SDS011;10330;48.816;9.278;2023-02-18T15:27:00;2.05;;;1.63;;
20344;SDS011;10330;48.816;9.278;2023-02-18T15:29:34;1.63;;;1.35;;
20344;SDS011;10330;48.816;9.278;2023-02-18T15:32:07;1.40;;;1.30;;
20344;SDS011;10330;48.816;9.278;2023-02-18T15:34:56;3.53;;;1.58;;
20344;SDS011;10330;48.816;9.278;2023-02-18T15:37:26;1.42;;;1.40;;
20344;SDS011;10330;48.816;9.278;2023-02-18T15:39:54;2.17;;;1.55;;
20344;SDS011;10330;48.816;9.278;2023-02-18T15:47:51;1.80;;;1.70;;
20344;SDS011;10330;48.816;9.278;2023-02-18T15:52:46;1.45;;;1.35;;
20344;SDS011;10330;48.816;9.278;2023-02-18T15:55:17;1.63;;;1.52;;
20344;SDS011;10330;48.816;9.278;2023-02-18T15:58:00;1.70;;;1.60;;
20344;SDS011;10330;48.816;9.278;2023-02-18T16:00:34;1.98;;;1.67;;
20344;SDS011;10330;48.816;9.278;2023-02-18T16:03:14;1.27;;;1.27;;
20344;SDS011;10330;48.816;9.278;2023-02-18T16:05:46;8.63;;;1.83;;
20344;SDS011;10330;48.816;9.278;2023-02-18T16:08:16;2.40;;;1.40;;
20344;SDS011;10330;48.816;9.278;2023-02-18T16:10:52;2.03;;;1.83;;
20344;SDS011;10330;48.816;9.278;2023-02-18T16:13:25;1.60;;;1.50;;
20344;SDS011;10330;48.816;9.278;2023-02-18T16:15:53;1.23;;;1.17;;
20344;SDS011;10330;48.816;9.278;2023-02-18T16:20:53;1.13;;;1.10;;
20344;SDS011;10330;48.816;9.278;2023-02-18T16:23:42;2.55;;;1.70;;
20344;SDS011;10330;48.816;9.278;2023-02-18T16:28:49;1.20;;;1.15;;
20344;SDS011;10330;48.816;9.278;2023-02-18T16:31:16;4.80;;;1.55;;
20344;SDS011;10330;48.816;9.278;2023-02-18T16:33:42;2.00;;;1.75;;
20344;SDS011;10330;48.816;9.278;2023-02-18T16:36:10;1.15;;;1.13;;
20344;SDS011;10330;48.816;9.278;2023-02-18T16:38:40;2.25;;;1.90;;
20344;SDS011;10330;48.816;9.278;2023-02-18T16:41:07;2.10;;;1.90;;
20344;SDS011;10330;48.816;9.278;2023-02-18T16:43:36;2.33;;;1.98;;
20344;SDS011;10330;48.816;9.278;2023-02-18T16:46:13;1.88;;;1.70;;
20344;SDS011;10330;48.816;9.278;2023-02-18T16:48:42;1.65;;;1.55;;
20344;SDS011;10330;48.816;9.278;2023-02-18T16:53:39;3.22;;;1.77;;
20344;SDS011;10330;48.816;9.278;2023-02-18T16:56:10;2.03;;;1.70;;
20344;SDS011;10330;48.816;9.278;2023-02-18T16:58:42;4.63;;;1.70;;
20344;SDS011;10330;48.816;9.278;2023-02-18T17:01:30;2.53;;;1.88;;
20344;SDS011;10330;48.816;9.278;2023-02-18T17:03:58;1.58;;;1.10;;
20344;SDS011;10330;48.816;9.278;2023-02-18T17:06:25;3.08;;;1.60;;
20344;SDS011;10330;48.816;9.278;2023-02-18T17:08:52;1.48;;;1.38;;
20344;SDS011;10330;48.816;9.278;2023-02-18T17:11:20;1.60;;;1.42;;
20344;SDS011;10330;48.816;9.278;2023-02-18T17:13:54;3.85;;;2.00;;
20344;SDS011;10330;48.816;9.278;2023-02-18T17:16:25;2.75;;;2.00;;
20344;SDS011;10330;48.816;9.278;2023-02-18T17:18:52;2.63;;;2.00;;
20344;SDS011;10330;48.816;9.278;2023-02-18T17:21:19;1.88;;;1.52;;
20344;SDS011;10330;48.816;9.278;2023-02-18T17:23:48;2.58;;;1.90;;
20344;SDS011;10330;48.816;9.278;2023-02-18T17:26:22;2.20;;;1.70;;
20344;SDS011;10330;48.816;9.278;2023-02-18T17:28:51;1.73;;;1.63;;
20344;SDS011;10330;48.816;9.278;2023-02-18T17:31:24;3.08;;;1.92;;
20344;SDS011;10330;48.816;9.278;2023-02-18T17:33:53;2.70;;;1.75;;
20344;SDS011;10330;48.816;9.278;2023-02-18T17:38:51;2.85;;;1.80;;
20344;SDS011;10330;48.816;9.278;2023-02-18T17:41:18;4.55;;;2.95;;
20344;SDS011;10330;48.816;9.278;2023-02-18T17:43:53;3.17;;;1.92;;
20344;SDS011;10330;48.816;9.278;2023-02-18T17:46:19;5.20;;;1.55;;
20344;SDS011;10330;48.816;9.278;2023-02-18T17:48:46;7.38;;;2.42;;
20344;SDS011;10330;48.816;9.278;2023-02-18T17:51:22;11.07;;;3.78;;
20344;SDS011;10330;48.816;9.278;2023-02-18T17:53:50;4.07;;;2.10;;
20344;SDS011;10330;48.816;9.278;2023-02-18T17:56:16;3.60;;;2.47;;
20344;SDS011;10330;48.816;9.278;2023-02-18T17:58:42;3.70;;;2.35;;
20344;SDS011;10330;48.816;9.278;2023-02-18T18:01:10;3.55;;;2.08;;
20344;SDS011;10330;48.816;9.278;2023-02-18T18:03:37;3.17;;;2.20;;
20344;SDS011;10330;48.816;9.278;2023-02-18T18:06:03;2.25;;;2.05;;
20344;SDS011;10330;48.816;9.278;2023-02-18T18:08:31;3.05;;;1.80;;
20344;SDS011;10330;48.816;9.278;2023-02-18T18:10:58;3.47;;;1.70;;
20344;SDS011;10330;48.816;9.278;2023-02-18T18:13:29;2.00;;;1.40;;
20344;SDS011;10330;48.816;9.278;2023-02-18T18:15:59;1.67;;;1.58;;
20344;SDS011;10330;48.816;9.278;2023-02-18T18:18:25;4.35;;;1.80;;
20344;SDS011;10330;48.816;9.278;2023-02-18T18:20:53;2.85;;;1.45;;
20344;SDS011;10330;48.816;9.278;2023-02-18T18:23:23;1.67;;;1.58;;
20344;SDS011;10330;48.816;9.278;2023-02-18T18:25:49;1.98;;;1.08;;
20344;SDS011;10330;48.816;9.278;2023-02-18T18:28:18;1.60;;;1.50;;
20344;SDS011;10330;48.816;9.278;2023-02-18T18:30:45;2.08;;;1.98;;
20344;SDS011;10330;48.816;9.278;2023-02-18T18:33:24;2.05;;;1.52;;
20344;SDS011;10330;48.816;9.278;2023-02-18T18:35:56;1.63;;;1.52;;
20344;SDS011;10330;48.816;9.278;2023-02-18T18:38:23;1.52;;;1.42;;
20344;SDS011;10330;48.816;9.278;2023-02-18T18:40:51;2.40;;;1.65;;
20344;SDS011;10330;48.816;9.278;2023-02-18T18:43:28;5.18;;;1.67;;
20344;SDS011;10330;48.816;9.278;2023-02-18T18:45:56;3.40;;;1.40;;
20344;SDS011;10330;48.816;9.278;2023-02-18T18:48:22;1.65;;;1.55;;
20344;SDS011;10330;48.816;9.278;2023-02-18T18:50:49;2.13;;;1.92;;
20344;SDS011;10330;48.816;9.278;2023-02-18T18:55:52;1.70;;;1.60;;
20344;SDS011;10330;48.816;9.278;2023-02-18T18:58:20;1.70;;;1.60;;
20344;SDS011;10330;48.816;9.278;2023-02-18T19:00:50;1.25;;;1.25;;
20344;SDS011;10330;48.816;9.278;2023-02-18T19:03:20;1.85;;;1.40;;
20344;SDS011;10330;48.816;9.278;2023-02-18T19:05:48;1.85;;;1.75;;
20344;SDS011;10330;48.816;9.278;2023-02-18T19:08:14;3.70;;;1.90;;
20344;SDS011;10330;48.816;9.278;2023-02-18T19:10:43;1.73;;;1.48;;
20344;SDS011;10330;48.816;9.278;2023-02-18T19:13:12;1.95;;;1.67;;
20344;SDS011;10330;48.816;9.278;2023-02-18T19:15:43;1.67;;;1.58;;
20344;SDS011;10330;48.816;9.278;2023-02-18T19:18:11;2.58;;;1.73;;
20344;SDS011;10330;48.816;9.278;2023-02-18T19:20:41;1.80;;;1.70;;
20344;SDS011;10330;48.816;9.278;2023-02-18T19:23:07;1.50;;;1.50;;
20344;SDS011;10330;48.816;9.278;2023-02-18T19:25:34;1.85;;;1.73;;
20344;SDS011;10330;48.816;9.278;2023-02-18T19:28:01;2.03;;;1.83;;
20344;SDS011;10330;48.816;9.278;2023-02-18T19:30:29;1.75;;;1.65;;
20344;SDS011;10330;48.816;9.278;2023-02-18T19:32:57;1.58;;;1.52;;
20344;SDS011;10330;48.816;9.278;2023-02-18T19:35:25;2.00;;;1.85;;
20344;SDS011;10330;48.816;9.278;2023-02-18T19:37:52;2.17;;;2.08;;
20344;SDS011;10330;48.816;9.278;2023-02-18T19:40:20;1.90;;;1.80;;
20344;SDS011;10330;48.816;9.278;2023-02-18T19:42:47;4.97;;;1.80;;
20344;SDS011;10330;48.816;9.278;2023-02-18T19:45:14;4.60;;;2.53;;
20344;SDS011;10330;48.816;9.278;2023-02-18T19:47:45;4.72;;;2.72;;
20344;SDS011;10330;48.816;9.278;2023-02-18T19:50:12;2.25;;;2.10;;
20344;SDS011;10330;48.816;9.278;2023-02-18T19:52:43;2.17;;;2.00;;
20344;SDS011;10330;48.816;9.278;2023-02-18T19:55:09;2.20;;;2.10;;
20344;SDS011;10330;48.816;9.278;2023-02-18T19:57:36;2.10;;;2.00;;
20344;SDS011;10330;48.816;9.278;2023-02-18T20:00:03;3.08;;;2.47;;
20344;SDS011;10330;48.816;9.278;2023-02-18T20:02:41;2.83;;;2.63;;
20344;SDS011;10330;48.816;9.278;2023-02-18T20:05:08;2.50;;;2.25;;
20344;SDS011;10330;48.816;9.278;2023-02-18T20:07:35;2.08;;;1.98;;
20344;SDS011;10330;48.816;9.278;2023-02-18T20:10:02;3.58;;;2.58;;
20344;SDS011;10330;48.816;9.278;2023-02-18T20:12:30;1.48;;;1.48;;
20344;SDS011;10330;48.816;9.278;2023-02-18T20:14:56;2.58;;;2.38;;
20344;SDS011;10330;48.816;9.278;2023-02-18T20:17:23;7.95;;;3.70;;
20344;SDS011;10330;48.816;9.278;2023-02-18T20:19:49;4.57;;;3.53;;
20344;SDS011;10330;48.816;9.278;2023-02-18T20:22:15;3.60;;;3.13;;
20344;SDS011;10330;48.816;9.278;2023-02-18T20:24:41;4.50;;;3.72;;
20344;SDS011;10330;48.816;9.278;2023-02-18T20:27:08;4.82;;;4.25;;
20344;SDS011;10330;48.816;9.278;2023-02-18T20:29:35;6.15;;;3.60;;
20344;SDS011;10330;48.816;9.278;2023-02-18T20:32:02;3.63;;;2.72;;
20344;SDS011;10330;48.816;9.278;2023-02-18T20:34:29;5.97;;;3.30;;
20344;SDS011;10330;48.816;9.278;2023-02-18T20:36:57;4.63;;;3.65;;
20344;SDS011;10330;48.816;9.278;2023-02-18T20:39:24;6.60;;;3.35;;
20344;SDS011;10330;48.816;9.278;2023-02-18T20:41:50;7.05;;;3.80;;
20344;SDS011;10330;48.816;9.278;2023-02-18T20:44:17;3.70;;;3.40;;
20344;SDS011;10330;48.816;9.278;2023-02-18T20:46:45;7.72;;;4.72;;
20344;SDS011;10330;48.816;9.278;2023-02-18T20:49:15;6.43;;;4.13;;
20344;SDS011;10330;48.816;9.278;2023-02-18T20:51:43;3.50;;;3.20;;
20344;SDS011;10330;48.816;9.278;2023-02-18T20:54:11;4.00;;;3.10;;
20344;SDS011;10330;48.816;9.278;2023-02-18T20:56:43;4.30;;;3.53;;
20344;SDS011;10330;48.816;9.278;2023-02-18T20:59:11;4.85;;;2.67;;
20344;SDS011;10330;48.816;9.278;2023-02-18T21:01:39;5.30;;;3.05;;
20344;SDS011;10330;48.816;9.278;2023-02-18T21:04:06;6.75;;;3.17;;
20344;SDS011;10330;48.816;9.278;2023-02-18T21:06:32;4.85;;;2.70;;
20344;SDS011;10330;48.816;9.278;2023-02-18T21:08:58;7.35;;;3.28;;
20344;SDS011;10330;48.816;9.278;2023-02-18T21:11:25;4.43;;;3.05;;
20344;SDS011;10330;48.816;9.278;2023-02-18T21:13:53;3.42;;;3.13;;
20344;SDS011;10330;48.816;9.278;2023-02-18T21:16:21;3.35;;;2.92;;
20344;SDS011;10330;48.816;9.278;2023-02-18T21:18:49;2.80;;;2.60;;
20344;SDS011;10330;48.816;9.278;2023-02-18T21:21:15;2.85;;;2.65;;
20344;SDS011;10330;48.816;9.278;2023-02-18T21:23:42;5.00;;;2.85;;
20344;SDS011;10330;48.816;9.278;2023-02-18T21:26:09;3.03;;;2.67;;
20344;SDS011;10330;48.816;9.278;2023-02-18T21:28:38;3.30;;;3.00;;
20344;SDS011;10330;48.816;9.278;2023-02-18T21:31:13;3.20;;;2.72;;
20344;SDS011;10330;48.816;9.278;2023-02-18T21:33:41;2.97;;;2.67;;
20344;SDS011;10330;48.816;9.278;2023-02-18T21:36:07;3.90;;;3.33;;
20344;SDS011;10330;48.816;9.278;2023-02-18T21:38:33;4.07;;;2.88;;
20344;SDS011;10330;48.816;9.278;2023-02-18T21:40:59;3.22;;;2.95;;
20344;SDS011;10330;48.816;9.278;2023-02-18T21:43:27;2.33;;;2.10;;
20344;SDS011;10330;48.816;9.278;2023-02-18T21:46:09;2.75;;;2.33;;
20344;SDS011;10330;48.816;9.278;2023-02-18T21:48:39;4.68;;;2.50;;
20344;SDS011;10330;48.816;9.278;2023-02-18T21:51:24;2.83;;;2.60;;
20344;SDS011;10330;48.816;9.278;2023-02-18T21:54:09;3.25;;;2.47;;
20344;SDS011;10330;48.816;9.278;2023-02-18T21:56:48;2.45;;;2.25;;
20344;SDS011;10330;48.816;9.278;2023-02-18T21:59:15;2.42;;;2.22;;
20344;SDS011;10330;48.816;9.278;2023-02-18T22:01:41;2.58;;;2.38;;
20344;SDS011;10330;48.816;9.278;2023-02-18T22:04:07;3.05;;;2.75;;
20344;SDS011;10330;48.816;9.278;2023-02-18T22:06:34;2.58;;;2.30;;
20344;SDS011;10330;48.816;9.278;2023-02-18T22:09:00;10.45;;;3.17;;
20344;SDS011;10330;48.816;9.278;2023-02-18T22:11:27;3.88;;;3.47;;
20344;SDS011;10330;48.816;9.278;2023-02-18T22:13:54;2.72;;;2.30;;
20344;SDS011;10330;48.816;9.278;2023-02-18T22:16:20;3.47;;;2.88;;
20344;SDS011;10330;48.816;9.278;2023-02-18T22:18:46;3.10;;;2.90;;
20344;SDS011;10330;48.816;9.278;2023-02-18T22:21:13;2.70;;;2.50;;
20344;SDS011;10330;48.816;9.278;2023-02-18T22:23:39;3.05;;;2.85;;
20344;SDS011;10330;48.816;9.278;2023-02-18T22:26:06;2.78;;;2.50;;
20344;SDS011;10330;48.816;9.278;2023-02-18T22:28:34;2.83;;;2.63;;
20344;SDS011;10330;48.816;9.278;2023-02-18T22:31:07;2.47;;;2.38;;
20344;SDS011;10330;48.816;9.278;2023-02-18T22:33:35;3.25;;;3.03;;
20344;SDS011;10330;48.816;9.278;2023-02-18T22:36:02;3.20;;;3.00;;
20344;SDS011;10330;48.816;9.278;2023-02-18T22:38:31;3.03;;;2.80;;
20344;SDS011;10330;48.816;9.278;2023-02-18T22:41:03;2.72;;;2.58;;
20344;SDS011;10330;48.816;9.278;2023-02-18T22:43:34;2.60;;;2.45;;
20344;SDS011;10330;48.816;9.278;2023-02-18T22:46:02;4.28;;;2.83;;
20344;SDS011;10330;48.816;9.278;2023-02-18T22:48:32;3.95;;;2.83;;
20344;SDS011;10330;48.816;9.278;2023-02-18T22:51:06;3.00;;;2.67;;
20344;SDS011;10330;48.816;9.278;2023-02-18T22:53:37;3.22;;;2.90;;
20344;SDS011;10330;48.816;9.278;2023-02-18T22:56:05;3.28;;;2.97;;
20344;SDS011;10330;48.816;9.278;2023-02-18T22:58:33;2.67;;;2.58;;
20344;SDS011;10330;48.816;9.278;2023-02-18T23:01:00;2.97;;;2.70;;
20344;SDS011;10330;48.816;9.278;2023-02-18T23:03:27;2.83;;;2.63;;
20344;SDS011;10330;48.816;9.278;2023-02-18T23:05:54;3.20;;;3.00;;
20344;SDS011;10330;48.816;9.278;2023-02-18T23:08:25;3.25;;;3.05;;
20344;SDS011;10330;48.816;9.278;2023-02-18T23:13:27;3.53;;;3.25;;
20344;SDS011;10330;48.816;9.278;2023-02-18T23:15:57;7.50;;;4.63;;
20344;SDS011;10330;48.816;9.278;2023-02-18T23:18:24;4.00;;;3.60;;
20344;SDS011;10330;48.816;9.278;2023-02-18T23:20:52;3.47;;;3.05;;
20344;SDS011;10330;48.816;9.278;2023-02-18T23:23:37;3.90;;;3.55;;
20344;SDS011;10330;48.816;9.278;2023-02-18T23:26:04;5.32;;;4.13;;
20344;SDS011;10330;48.816;9.278;2023-02-18T23:28:30;6.13;;;4.50;;
20344;SDS011;10330;48.816;9.278;2023-02-18T23:33:48;10.82;;;7.40;;
20344;SDS011;10330;48.816;9.278;2023-02-18T23:36:19;4.45;;;4.05;;
20344;SDS011;10330;48.816;9.278;2023-02-18T23:38:48;6.05;;;4.25;;
20344;SDS011;10330;48.816;9.278;2023-02-18T23:41:16;4.45;;;4.05;;
20344;SDS011;10330;48.816;9.278;2023-02-18T23:43:43;3.60;;;3.30;;
20344;SDS011;10330;48.816;9.278;2023-02-18T23:46:22;5.68;;;3.25;;
20344;SDS011;10330;48.816;9.278;2023-02-18T23:48:49;4.53;;;3.08;;
20344;SDS011;10330;48.816;9.278;2023-02-18T23:51:19;5.95;;;3.35;;
20344;SDS011;10330;48.816;9.278;2023-02-18T23:53:47;2.80;;;2.60;;
20344;SDS011;10330;48.816;9.278;2023-02-18T23:56:17;5.38;;;3.40;;
20344;SDS011;10330;48.816;9.278;2023-02-18T23:58:49;3.17;;;2.97;;
